sensor_id;sensor_type;location;lat;lon;timestamp;temperature;humidity
26224;DHT22;14820;48.682;8.890;2022-07-23T00:01:12;22.60;99.90
26224;DHT22;14820;48.682;8.890;2022-07-23T00:03:37;22.60;99.90
26224;DHT22;14820;48.682;8.890;2022-07-23T00:06:03;22.60;99.90
26224;DHT22;14820;48.682;8.890;2022-07-23T00:08:29;22.60;99.90
26224;DHT22;14820;48.682;8.890;2022-07-23T00:10:54;22.60;99.90
26224;DHT22;14820;48.682;8.890;2022-07-23T00:13:20;22.50;99.90
26224;DHT22;14820;48.682;8.890;2022-07-23T00:15:46;22.50;99.90
26224;DHT22;14820;48.682;8.890;2022-07-23T00:18:11;22.50;99.90
26224;DHT22;14820;48.682;8.890;2022-07-23T00:20:37;22.50;99.90
26224;DHT22;14820;48.682;8.890;2022-07-23T00:23:03;22.50;99.90
26224;DHT22;14820;48.682;8.890;2022-07-23T00:25:28;22.40;99.90
26224;DHT22;14820;48.682;8.890;2022-07-23T00:27:54;22.40;99.90
26224;DHT22;14820;48.682;8.890;2022-07-23T00:30:20;22.40;99.90
26224;DHT22;14820;48.682;8.890;2022-07-23T00:32:51;22.30;99.90
26224;DHT22;14820;48.682;8.890;2022-07-23T00:35:19;22.20;99.90
26224;DHT22;14820;48.682;8.890;2022-07-23T00:37:45;22.20;99.90
26224;DHT22;14820;48.682;8.890;2022-07-23T00:40:11;22.20;99.90
26224;DHT22;14820;48.682;8.890;2022-07-23T00:42:38;22.10;99.90
26224;DHT22;14820;48.682;8.890;2022-07-23T00:45:04;22.00;99.90
26224;DHT22;14820;48.682;8.890;2022-07-23T00:47:30;22.10;99.90
26224;DHT22;14820;48.682;8.890;2022-07-23T00:49:55;22.00;99.90
26224;DHT22;14820;48.682;8.890;2022-07-23T00:52:21;21.90;99.90
26224;DHT22;14820;48.682;8.890;2022-07-23T00:54:47;21.90;99.90
26224;DHT22;14820;48.682;8.890;2022-07-23T00:57:13;21.80;99.90
26224;DHT22;14820;48.682;8.890;2022-07-23T00:59:40;21.80;99.90
26224;DHT22;14820;48.682;8.890;2022-07-23T01:02:06;21.80;99.90
26224;DHT22;14820;48.682;8.890;2022-07-23T01:04:31;21.70;99.90
26224;DHT22;14820;48.682;8.890;2022-07-23T01:06:58;21.60;99.90
26224;DHT22;14820;48.682;8.890;2022-07-23T01:09:24;21.60;99.90
26224;DHT22;14820;48.682;8.890;2022-07-23T01:11:51;21.60;99.90
26224;DHT22;14820;48.682;8.890;2022-07-23T01:14:18;21.60;99.90
26224;DHT22;14820;48.682;8.890;2022-07-23T01:16:45;21.50;99.90
26224;DHT22;14820;48.682;8.890;2022-07-23T01:19:12;21.50;99.90
26224;DHT22;14820;48.682;8.890;2022-07-23T01:21:49;21.50;99.90
26224;DHT22;14820;48.682;8.890;2022-07-23T01:24:16;21.60;99.90
26224;DHT22;14820;48.682;8.890;2022-07-23T01:26:44;21.60;99.90
26224;DHT22;14820;48.682;8.890;2022-07-23T01:29:10;21.50;99.90
26224;DHT22;14820;48.682;8.890;2022-07-23T01:31:36;21.40;99.90
26224;DHT22;14820;48.682;8.890;2022-07-23T01:34:02;21.40;99.90
26224;DHT22;14820;48.682;8.890;2022-07-23T01:36:29;21.30;99.90
26224;DHT22;14820;48.682;8.890;2022-07-23T01:38:55;21.30;99.90
26224;DHT22;14820;48.682;8.890;2022-07-23T01:41:21;21.30;99.90
26224;DHT22;14820;48.682;8.890;2022-07-23T01:43:47;21.20;99.90
26224;DHT22;14820;48.682;8.890;2022-07-23T01:46:12;21.20;99.90
26224;DHT22;14820;48.682;8.890;2022-07-23T01:48:38;21.20;99.90
26224;DHT22;14820;48.682;8.890;2022-07-23T01:51:05;21.10;99.90
26224;DHT22;14820;48.682;8.890;2022-07-23T01:53:31;21.00;99.90
26224;DHT22;14820;48.682;8.890;2022-07-23T01:55:58;20.90;99.90
26224;DHT22;14820;48.682;8.890;2022-07-23T01:58:25;20.90;99.90
26224;DHT22;14820;48.682;8.890;2022-07-23T02:00:51;20.80;99.90
26224;DHT22;14820;48.682;8.890;2022-07-23T02:03:16;20.70;99.90
26224;DHT22;14820;48.682;8.890;2022-07-23T02:05:42;20.70;99.90
26224;DHT22;14820;48.682;8.890;2022-07-23T02:08:08;20.70;99.90
26224;DHT22;14820;48.682;8.890;2022-07-23T02:10:33;20.60;99.90
26224;DHT22;14820;48.682;8.890;2022-07-23T02:12:59;20.60;99.90
26224;DHT22;14820;48.682;8.890;2022-07-23T02:15:25;20.50;99.90
26224;DHT22;14820;48.682;8.890;2022-07-23T02:17:50;20.50;99.90
26224;DHT22;14820;48.682;8.890;2022-07-23T02:20:16;20.50;99.90
26224;DHT22;14820;48.682;8.890;2022-07-23T02:22:42;20.30;99.90
26224;DHT22;14820;48.682;8.890;2022-07-23T02:25:08;20.30;99.90
26224;DHT22;14820;48.682;8.890;2022-07-23T02:27:35;20.30;99.90
26224;DHT22;14820;48.682;8.890;2022-07-23T02:30:02;20.30;99.90
26224;DHT22;14820;48.682;8.890;2022-07-23T02:32:27;20.30;99.90
26224;DHT22;14820;48.682;8.890;2022-07-23T02:34:53;20.30;99.90
26224;DHT22;14820;48.682;8.890;2022-07-23T02:37:19;20.20;99.90
26224;DHT22;14820;48.682;8.890;2022-07-23T02:39:44;20.30;99.90
26224;DHT22;14820;48.682;8.890;2022-07-23T02:42:10;20.20;99.90
26224;DHT22;14820;48.682;8.890;2022-07-23T02:44:36;20.20;99.90
26224;DHT22;14820;48.682;8.890;2022-07-23T02:47:01;20.20;99.90
26224;DHT22;14820;48.682;8.890;2022-07-23T02:49:27;20.20;99.90
26224;DHT22;14820;48.682;8.890;2022-07-23T02:51:53;20.10;99.90
26224;DHT22;14820;48.682;8.890;2022-07-23T02:54:19;20.10;99.90
26224;DHT22;14820;48.682;8.890;2022-07-23T02:56:45;20.20;99.90
26224;DHT22;14820;48.682;8.890;2022-07-23T02:59:11;20.10;99.90
26224;DHT22;14820;48.682;8.890;2022-07-23T03:01:37;20.10;99.90
26224;DHT22;14820;48.682;8.890;2022-07-23T03:04:02;20.00;99.90
26224;DHT22;14820;48.682;8.890;2022-07-23T03:06:28;20.00;99.90
26224;DHT22;14820;48.682;8.890;2022-07-23T03:08:54;20.00;99.90
26224;DHT22;14820;48.682;8.890;2022-07-23T03:11:19;20.00;99.90
26224;DHT22;14820;48.682;8.890;2022-07-23T03:13:45;20.00;99.90
26224;DHT22;14820;48.682;8.890;2022-07-23T03:16:11;20.00;99.90
26224;DHT22;14820;48.682;8.890;2022-07-23T03:18:37;20.00;99.90
26224;DHT22;14820;48.682;8.890;2022-07-23T03:21:03;20.00;99.90
26224;DHT22;14820;48.682;8.890;2022-07-23T03:23:28;20.00;99.90
26224;DHT22;14820;48.682;8.890;2022-07-23T03:25:54;20.00;99.90
26224;DHT22;14820;48.682;8.890;2022-07-23T03:28:20;20.00;99.90
26224;DHT22;14820;48.682;8.890;2022-07-23T03:30:46;19.90;99.90
26224;DHT22;14820;48.682;8.890;2022-07-23T03:33:16;19.80;99.90
26224;DHT22;14820;48.682;8.890;2022-07-23T03:35:44;19.80;99.90
26224;DHT22;14820;48.682;8.890;2022-07-23T03:38:11;19.80;99.90
26224;DHT22;14820;48.682;8.890;2022-07-23T03:40:36;19.80;99.90
26224;DHT22;14820;48.682;8.890;2022-07-23T03:43:02;19.80;99.90
26224;DHT22;14820;48.682;8.890;2022-07-23T03:45:28;19.80;99.90
26224;DHT22;14820;48.682;8.890;2022-07-23T03:47:53;19.70;99.90
26224;DHT22;14820;48.682;8.890;2022-07-23T03:50:19;19.70;99.90
26224;DHT22;14820;48.682;8.890;2022-07-23T03:52:45;19.70;99.90
26224;DHT22;14820;48.682;8.890;2022-07-23T03:55:11;19.60;99.90
26224;DHT22;14820;48.682;8.890;2022-07-23T03:57:37;19.50;99.90
26224;DHT22;14820;48.682;8.890;2022-07-23T04:00:04;19.50;99.90
26224;DHT22;14820;48.682;8.890;2022-07-23T04:02:32;19.50;99.90
26224;DHT22;14820;48.682;8.890;2022-07-23T04:04:57;19.60;99.90
26224;DHT22;14820;48.682;8.890;2022-07-23T04:07:24;19.70;99.90
26224;DHT22;14820;48.682;8.890;2022-07-23T04:09:50;19.60;99.90
26224;DHT22;14820;48.682;8.890;2022-07-23T04:12:16;19.60;99.90
26224;DHT22;14820;48.682;8.890;2022-07-23T04:14:41;19.60;99.90
26224;DHT22;14820;48.682;8.890;2022-07-23T04:17:07;19.60;99.90
26224;DHT22;14820;48.682;8.890;2022-07-23T04:19:33;19.60;99.90
26224;DHT22;14820;48.682;8.890;2022-07-23T04:21:58;19.50;99.90
26224;DHT22;14820;48.682;8.890;2022-07-23T04:24:24;19.50;99.90
26224;DHT22;14820;48.682;8.890;2022-07-23T04:26:50;19.50;99.90
26224;DHT22;14820;48.682;8.890;2022-07-23T04:29:15;19.50;99.90
26224;DHT22;14820;48.682;8.890;2022-07-23T04:31:41;19.50;99.90
26224;DHT22;14820;48.682;8.890;2022-07-23T04:34:06;19.50;99.90
26224;DHT22;14820;48.682;8.890;2022-07-23T04:36:32;19.60;99.90
26224;DHT22;14820;48.682;8.890;2022-07-23T04:38:58;19.50;99.90
26224;DHT22;14820;48.682;8.890;2022-07-23T04:41:23;19.50;99.90
26224;DHT22;14820;48.682;8.890;2022-07-23T04:43:49;19.50;99.90
26224;DHT22;14820;48.682;8.890;2022-07-23T04:46:15;19.50;99.90
26224;DHT22;14820;48.682;8.890;2022-07-23T04:48:40;19.50;99.90
26224;DHT22;14820;48.682;8.890;2022-07-23T04:51:07;19.40;99.90
26224;DHT22;14820;48.682;8.890;2022-07-23T04:53:33;19.40;99.90
26224;DHT22;14820;48.682;8.890;2022-07-23T04:55:58;19.40;99.90
26224;DHT22;14820;48.682;8.890;2022-07-23T04:58:24;19.50;99.90
26224;DHT22;14820;48.682;8.890;2022-07-23T05:00:50;19.60;99.90
26224;DHT22;14820;48.682;8.890;2022-07-23T05:03:16;19.70;99.90
26224;DHT22;14820;48.682;8.890;2022-07-23T05:05:42;19.70;99.90
26224;DHT22;14820;48.682;8.890;2022-07-23T05:08:08;19.70;99.90
26224;DHT22;14820;48.682;8.890;2022-07-23T05:10:34;19.80;99.90
26224;DHT22;14820;48.682;8.890;2022-07-23T05:12:59;19.80;99.90
26224;DHT22;14820;48.682;8.890;2022-07-23T05:15:25;19.90;99.90
26224;DHT22;14820;48.682;8.890;2022-07-23T05:17:51;20.00;99.90
26224;DHT22;14820;48.682;8.890;2022-07-23T05:20:17;20.00;99.90
26224;DHT22;14820;48.682;8.890;2022-07-23T05:22:42;20.00;99.90
26224;DHT22;14820;48.682;8.890;2022-07-23T05:25:08;20.00;99.90
26224;DHT22;14820;48.682;8.890;2022-07-23T05:27:34;20.10;99.90
26224;DHT22;14820;48.682;8.890;2022-07-23T05:30:00;20.10;99.90
26224;DHT22;14820;48.682;8.890;2022-07-23T05:32:26;20.20;99.90
26224;DHT22;14820;48.682;8.890;2022-07-23T05:34:51;20.10;99.90
26224;DHT22;14820;48.682;8.890;2022-07-23T05:37:17;20.10;99.90
26224;DHT22;14820;48.682;8.890;2022-07-23T05:39:43;20.20;99.90
26224;DHT22;14820;48.682;8.890;2022-07-23T05:42:08;20.20;99.90
26224;DHT22;14820;48.682;8.890;2022-07-23T05:44:34;20.30;99.90
26224;DHT22;14820;48.682;8.890;2022-07-23T05:47:01;20.30;99.90
26224;DHT22;14820;48.682;8.890;2022-07-23T05:49:27;20.30;99.90
26224;DHT22;14820;48.682;8.890;2022-07-23T05:51:52;20.30;99.90
26224;DHT22;14820;48.682;8.890;2022-07-23T05:54:18;20.30;99.90
26224;DHT22;14820;48.682;8.890;2022-07-23T05:56:44;20.30;99.90
26224;DHT22;14820;48.682;8.890;2022-07-23T05:59:09;20.30;99.90
26224;DHT22;14820;48.682;8.890;2022-07-23T06:01:37;20.40;99.90
26224;DHT22;14820;48.682;8.890;2022-07-23T06:04:03;20.50;99.90
26224;DHT22;14820;48.682;8.890;2022-07-23T06:06:28;20.50;99.90
26224;DHT22;14820;48.682;8.890;2022-07-23T06:08:54;20.60;99.90
26224;DHT22;14820;48.682;8.890;2022-07-23T06:11:20;20.70;99.90
26224;DHT22;14820;48.682;8.890;2022-07-23T06:13:45;20.80;99.90
26224;DHT22;14820;48.682;8.890;2022-07-23T06:16:11;20.80;99.90
26224;DHT22;14820;48.682;8.890;2022-07-23T06:18:37;20.90;99.90
26224;DHT22;14820;48.682;8.890;2022-07-23T06:21:02;20.90;99.90
26224;DHT22;14820;48.682;8.890;2022-07-23T06:23:28;20.90;99.90
26224;DHT22;14820;48.682;8.890;2022-07-23T06:25:54;21.00;99.90
26224;DHT22;14820;48.682;8.890;2022-07-23T06:28:19;21.00;99.90
26224;DHT22;14820;48.682;8.890;2022-07-23T06:30:45;21.10;99.90
26224;DHT22;14820;48.682;8.890;2022-07-23T06:33:11;21.10;99.90
26224;DHT22;14820;48.682;8.890;2022-07-23T06:35:37;21.20;99.90
26224;DHT22;14820;48.682;8.890;2022-07-23T06:38:03;21.20;99.90
26224;DHT22;14820;48.682;8.890;2022-07-23T06:40:29;21.30;99.90
26224;DHT22;14820;48.682;8.890;2022-07-23T06:42:54;21.30;99.90
26224;DHT22;14820;48.682;8.890;2022-07-23T06:45:20;21.30;99.90
26224;DHT22;14820;48.682;8.890;2022-07-23T06:47:46;21.30;99.90
26224;DHT22;14820;48.682;8.890;2022-07-23T06:50:12;21.30;99.90
26224;DHT22;14820;48.682;8.890;2022-07-23T06:52:37;21.40;99.90
26224;DHT22;14820;48.682;8.890;2022-07-23T06:55:03;21.40;99.90
26224;DHT22;14820;48.682;8.890;2022-07-23T06:57:29;21.40;99.90
26224;DHT22;14820;48.682;8.890;2022-07-23T06:59:55;21.30;99.90
26224;DHT22;14820;48.682;8.890;2022-07-23T07:02:20;21.40;99.90
26224;DHT22;14820;48.682;8.890;2022-07-23T07:04:46;21.40;99.90
26224;DHT22;14820;48.682;8.890;2022-07-23T07:07:12;21.40;99.90
26224;DHT22;14820;48.682;8.890;2022-07-23T07:09:38;21.40;99.90
26224;DHT22;14820;48.682;8.890;2022-07-23T07:12:04;21.40;99.90
26224;DHT22;14820;48.682;8.890;2022-07-23T07:14:30;21.50;99.90
26224;DHT22;14820;48.682;8.890;2022-07-23T07:16:56;21.50;99.90
26224;DHT22;14820;48.682;8.890;2022-07-23T07:19:21;21.60;99.90
26224;DHT22;14820;48.682;8.890;2022-07-23T07:21:47;21.70;99.90
26224;DHT22;14820;48.682;8.890;2022-07-23T07:24:13;21.80;99.90
26224;DHT22;14820;48.682;8.890;2022-07-23T07:26:38;21.80;99.90
26224;DHT22;14820;48.682;8.890;2022-07-23T07:29:05;21.80;99.90
26224;DHT22;14820;48.682;8.890;2022-07-23T07:31:31;21.80;99.90
26224;DHT22;14820;48.682;8.890;2022-07-23T07:33:56;21.90;99.90
26224;DHT22;14820;48.682;8.890;2022-07-23T07:36:22;21.90;99.90
26224;DHT22;14820;48.682;8.890;2022-07-23T07:38:48;21.90;99.90
26224;DHT22;14820;48.682;8.890;2022-07-23T07:41:14;21.90;99.90
26224;DHT22;14820;48.682;8.890;2022-07-23T07:43:40;22.00;99.90
26224;DHT22;14820;48.682;8.890;2022-07-23T07:46:05;22.00;99.90
26224;DHT22;14820;48.682;8.890;2022-07-23T07:48:38;22.10;99.90
26224;DHT22;14820;48.682;8.890;2022-07-23T07:51:04;22.20;99.90
26224;DHT22;14820;48.682;8.890;2022-07-23T07:53:30;22.30;99.90
26224;DHT22;14820;48.682;8.890;2022-07-23T07:55:56;22.40;99.90
26224;DHT22;14820;48.682;8.890;2022-07-23T07:58:21;22.40;99.90
26224;DHT22;14820;48.682;8.890;2022-07-23T08:00:47;22.40;99.90
26224;DHT22;14820;48.682;8.890;2022-07-23T08:03:13;22.40;99.90
26224;DHT22;14820;48.682;8.890;2022-07-23T08:05:39;22.50;99.90
26224;DHT22;14820;48.682;8.890;2022-07-23T08:08:05;22.40;99.90
26224;DHT22;14820;48.682;8.890;2022-07-23T08:10:31;22.40;99.90
26224;DHT22;14820;48.682;8.890;2022-07-23T08:12:58;22.40;99.90
26224;DHT22;14820;48.682;8.890;2022-07-23T08:15:26;22.40;99.90
26224;DHT22;14820;48.682;8.890;2022-07-23T08:17:52;22.50;99.90
26224;DHT22;14820;48.682;8.890;2022-07-23T08:20:20;22.50;99.90
26224;DHT22;14820;48.682;8.890;2022-07-23T08:25:16;22.80;99.90
26224;DHT22;14820;48.682;8.890;2022-07-23T08:27:44;22.90;99.90
26224;DHT22;14820;48.682;8.890;2022-07-23T08:30:10;22.90;99.90
26224;DHT22;14820;48.682;8.890;2022-07-23T08:35:33;23.10;99.90
26224;DHT22;14820;48.682;8.890;2022-07-23T08:38:00;23.20;99.90
26224;DHT22;14820;48.682;8.890;2022-07-23T08:40:28;23.20;99.90
26224;DHT22;14820;48.682;8.890;2022-07-23T08:42:54;23.30;99.90
26224;DHT22;14820;48.682;8.890;2022-07-23T08:45:22;23.40;99.90
26224;DHT22;14820;48.682;8.890;2022-07-23T08:47:56;23.50;99.90
26224;DHT22;14820;48.682;8.890;2022-07-23T08:50:23;23.50;99.90
26224;DHT22;14820;48.682;8.890;2022-07-23T08:52:50;23.50;99.90
26224;DHT22;14820;48.682;8.890;2022-07-23T08:55:17;23.60;99.90
26224;DHT22;14820;48.682;8.890;2022-07-23T08:57:44;23.60;99.90
26224;DHT22;14820;48.682;8.890;2022-07-23T09:00:10;23.80;99.90
26224;DHT22;14820;48.682;8.890;2022-07-23T09:02:43;23.90;99.90
26224;DHT22;14820;48.682;8.890;2022-07-23T09:05:10;24.00;99.90
26224;DHT22;14820;48.682;8.890;2022-07-23T09:07:38;24.10;99.90
26224;DHT22;14820;48.682;8.890;2022-07-23T09:10:23;24.10;99.90
26224;DHT22;14820;48.682;8.890;2022-07-23T09:12:49;24.20;99.90
26224;DHT22;14820;48.682;8.890;2022-07-23T09:15:14;24.30;99.90
26224;DHT22;14820;48.682;8.890;2022-07-23T09:17:42;24.40;99.90
26224;DHT22;14820;48.682;8.890;2022-07-23T09:20:10;24.50;99.90
26224;DHT22;14820;48.682;8.890;2022-07-23T09:22:37;24.50;99.90
26224;DHT22;14820;48.682;8.890;2022-07-23T09:27:54;24.60;99.90
26224;DHT22;14820;48.682;8.890;2022-07-23T09:30:31;24.70;99.90
26224;DHT22;14820;48.682;8.890;2022-07-23T09:35:54;24.80;99.90
26224;DHT22;14820;48.682;8.890;2022-07-23T09:38:23;24.90;99.90
26224;DHT22;14820;48.682;8.890;2022-07-23T09:41:06;24.80;99.90
26224;DHT22;14820;48.682;8.890;2022-07-23T09:43:31;24.70;99.90
26224;DHT22;14820;48.682;8.890;2022-07-23T09:46:25;24.80;99.90
26224;DHT22;14820;48.682;8.890;2022-07-23T09:48:53;25.00;99.90
26224;DHT22;14820;48.682;8.890;2022-07-23T09:51:19;25.10;99.90
26224;DHT22;14820;48.682;8.890;2022-07-23T09:54:04;25.20;99.90
26224;DHT22;14820;48.682;8.890;2022-07-23T09:56:29;25.40;99.90
26224;DHT22;14820;48.682;8.890;2022-07-23T09:58:56;25.40;99.90
26224;DHT22;14820;48.682;8.890;2022-07-23T10:01:33;25.40;99.90
26224;DHT22;14820;48.682;8.890;2022-07-23T10:03:59;25.50;99.90
26224;DHT22;14820;48.682;8.890;2022-07-23T10:06:26;25.60;99.90
26224;DHT22;14820;48.682;8.890;2022-07-23T10:08:55;25.60;99.90
26224;DHT22;14820;48.682;8.890;2022-07-23T10:11:23;25.60;99.90
26224;DHT22;14820;48.682;8.890;2022-07-23T10:13:49;25.50;99.90
26224;DHT22;14820;48.682;8.890;2022-07-23T10:16:21;25.60;99.90
26224;DHT22;14820;48.682;8.890;2022-07-23T10:18:47;25.60;99.90
26224;DHT22;14820;48.682;8.890;2022-07-23T10:21:26;25.50;99.90
26224;DHT22;14820;48.682;8.890;2022-07-23T10:24:10;25.40;99.90
26224;DHT22;14820;48.682;8.890;2022-07-23T10:30:05;25.30;99.90
26224;DHT22;14820;48.682;8.890;2022-07-23T10:41:06;25.60;99.90
26224;DHT22;14820;48.682;8.890;2022-07-23T10:43:32;25.70;99.90
26224;DHT22;14820;48.682;8.890;2022-07-23T10:46:26;25.90;99.90
26224;DHT22;14820;48.682;8.890;2022-07-23T10:52:18;26.00;99.90
26224;DHT22;14820;48.682;8.890;2022-07-23T10:54:47;26.10;99.90
26224;DHT22;14820;48.682;8.890;2022-07-23T10:57:14;26.20;99.90
26224;DHT22;14820;48.682;8.890;2022-07-23T11:02:38;26.40;99.90
26224;DHT22;14820;48.682;8.890;2022-07-23T11:05:18;26.50;99.90
26224;DHT22;14820;48.682;8.890;2022-07-23T11:13:26;26.60;99.90
26224;DHT22;14820;48.682;8.890;2022-07-23T11:32:24;27.00;99.90
26224;DHT22;14820;48.682;8.890;2022-07-23T11:34:53;27.00;99.90
26224;DHT22;14820;48.682;8.890;2022-07-23T11:37:32;26.90;99.90
26224;DHT22;14820;48.682;8.890;2022-07-23T11:39:58;26.90;99.90
26224;DHT22;14820;48.682;8.890;2022-07-23T11:42:24;26.80;99.90
26224;DHT22;14820;48.682;8.890;2022-07-23T11:44:50;26.80;99.90
26224;DHT22;14820;48.682;8.890;2022-07-23T11:47:22;26.80;99.90
26224;DHT22;14820;48.682;8.890;2022-07-23T11:49:59;26.90;99.90
26224;DHT22;14820;48.682;8.890;2022-07-23T11:52:27;27.00;99.90
26224;DHT22;14820;48.682;8.890;2022-07-23T11:54:58;27.00;99.90
26224;DHT22;14820;48.682;8.890;2022-07-23T11:57:27;27.00;99.90
26224;DHT22;14820;48.682;8.890;2022-07-23T11:59:56;27.10;99.90
26224;DHT22;14820;48.682;8.890;2022-07-23T12:02:22;27.00;99.30
26224;DHT22;14820;48.682;8.890;2022-07-23T12:04:50;27.00;99.60
26224;DHT22;14820;48.682;8.890;2022-07-23T12:07:36;27.00;99.90
26224;DHT22;14820;48.682;8.890;2022-07-23T12:13:01;26.80;99.70
26224;DHT22;14820;48.682;8.890;2022-07-23T12:15:28;26.80;99.90
26224;DHT22;14820;48.682;8.890;2022-07-23T12:17:55;26.70;99.80
26224;DHT22;14820;48.682;8.890;2022-07-23T12:20:24;26.60;99.90
26224;DHT22;14820;48.682;8.890;2022-07-23T12:22:55;26.40;99.90
26224;DHT22;14820;48.682;8.890;2022-07-23T12:25:24;26.40;99.90
26224;DHT22;14820;48.682;8.890;2022-07-23T12:28:04;26.30;99.90
26224;DHT22;14820;48.682;8.890;2022-07-23T12:30:33;26.30;99.90
26224;DHT22;14820;48.682;8.890;2022-07-23T12:33:00;26.30;99.90
26224;DHT22;14820;48.682;8.890;2022-07-23T12:35:42;26.40;99.90
26224;DHT22;14820;48.682;8.890;2022-07-23T12:38:10;26.50;99.90
26224;DHT22;14820;48.682;8.890;2022-07-23T12:40:51;26.50;99.50
26224;DHT22;14820;48.682;8.890;2022-07-23T12:43:26;26.50;99.40
26224;DHT22;14820;48.682;8.890;2022-07-23T12:46:04;26.50;99.40
26224;DHT22;14820;48.682;8.890;2022-07-23T12:48:40;26.50;99.30
26224;DHT22;14820;48.682;8.890;2022-07-23T12:51:21;26.50;99.50
26224;DHT22;14820;48.682;8.890;2022-07-23T12:53:50;26.50;99.60
26224;DHT22;14820;48.682;8.890;2022-07-23T12:56:26;26.50;99.40
26224;DHT22;14820;48.682;8.890;2022-07-23T12:58:54;26.50;99.60
26224;DHT22;14820;48.682;8.890;2022-07-23T13:06:49;26.70;99.40
26224;DHT22;14820;48.682;8.890;2022-07-23T13:09:26;26.90;98.90
26224;DHT22;14820;48.682;8.890;2022-07-23T13:11:53;26.80;98.40
26224;DHT22;14820;48.682;8.890;2022-07-23T13:14:20;26.80;97.90
26224;DHT22;14820;48.682;8.890;2022-07-23T13:16:46;26.80;98.30
26224;DHT22;14820;48.682;8.890;2022-07-23T13:19:13;26.70;98.30
26224;DHT22;14820;48.682;8.890;2022-07-23T13:21:40;26.70;98.40
26224;DHT22;14820;48.682;8.890;2022-07-23T13:24:07;26.70;98.10
26224;DHT22;14820;48.682;8.890;2022-07-23T13:26:33;26.60;98.40
26224;DHT22;14820;48.682;8.890;2022-07-23T13:28:58;26.60;98.20
26224;DHT22;14820;48.682;8.890;2022-07-23T13:31:24;26.60;98.50
26224;DHT22;14820;48.682;8.890;2022-07-23T13:33:50;26.60;98.60
26224;DHT22;14820;48.682;8.890;2022-07-23T13:36:16;26.50;98.50
26224;DHT22;14820;48.682;8.890;2022-07-23T13:38:41;26.50;98.70
26224;DHT22;14820;48.682;8.890;2022-07-23T13:41:07;26.40;98.40
26224;DHT22;14820;48.682;8.890;2022-07-23T13:43:33;26.40;98.20
26224;DHT22;14820;48.682;8.890;2022-07-23T13:45:59;26.40;97.70
26224;DHT22;14820;48.682;8.890;2022-07-23T13:48:25;26.40;97.70
26224;DHT22;14820;48.682;8.890;2022-07-23T13:50:51;26.30;97.80
26224;DHT22;14820;48.682;8.890;2022-07-23T13:53:21;26.30;97.50
26224;DHT22;14820;48.682;8.890;2022-07-23T13:55:49;26.40;97.80
26224;DHT22;14820;48.682;8.890;2022-07-23T13:58:15;26.50;97.70
26224;DHT22;14820;48.682;8.890;2022-07-23T14:00:47;26.60;97.50
26224;DHT22;14820;48.682;8.890;2022-07-23T14:03:13;26.70;97.30
26224;DHT22;14820;48.682;8.890;2022-07-23T14:05:39;26.70;96.50
26224;DHT22;14820;48.682;8.890;2022-07-23T14:08:06;26.70;96.70
26224;DHT22;14820;48.682;8.890;2022-07-23T14:10:32;26.70;96.80
26224;DHT22;14820;48.682;8.890;2022-07-23T14:12:57;26.70;96.50
26224;DHT22;14820;48.682;8.890;2022-07-23T14:15:26;26.70;96.40
26224;DHT22;14820;48.682;8.890;2022-07-23T14:17:52;26.70;96.20
26224;DHT22;14820;48.682;8.890;2022-07-23T14:20:18;26.70;96.40
26224;DHT22;14820;48.682;8.890;2022-07-23T14:22:44;26.70;95.40
26224;DHT22;14820;48.682;8.890;2022-07-23T14:25:10;26.70;94.50
26224;DHT22;14820;48.682;8.890;2022-07-23T14:27:37;26.70;94.40
26224;DHT22;14820;48.682;8.890;2022-07-23T14:30:04;26.70;94.60
26224;DHT22;14820;48.682;8.890;2022-07-23T14:32:30;26.80;94.80
26224;DHT22;14820;48.682;8.890;2022-07-23T14:34:56;26.80;94.60
26224;DHT22;14820;48.682;8.890;2022-07-23T14:37:22;26.90;94.70
26224;DHT22;14820;48.682;8.890;2022-07-23T14:39:48;26.80;93.60
26224;DHT22;14820;48.682;8.890;2022-07-23T14:42:14;26.90;93.50
26224;DHT22;14820;48.682;8.890;2022-07-23T14:44:40;26.90;93.10
26224;DHT22;14820;48.682;8.890;2022-07-23T14:47:08;26.90;93.00
26224;DHT22;14820;48.682;8.890;2022-07-23T14:49:34;26.90;92.60
26224;DHT22;14820;48.682;8.890;2022-07-23T14:52:01;27.00;92.20
26224;DHT22;14820;48.682;8.890;2022-07-23T14:54:28;27.20;92.30
26224;DHT22;14820;48.682;8.890;2022-07-23T14:56:54;27.30;91.10
26224;DHT22;14820;48.682;8.890;2022-07-23T14:59:20;27.40;90.90
26224;DHT22;14820;48.682;8.890;2022-07-23T15:01:45;27.30;90.70
26224;DHT22;14820;48.682;8.890;2022-07-23T15:04:11;27.30;91.00
26224;DHT22;14820;48.682;8.890;2022-07-23T15:06:37;27.30;91.30
26224;DHT22;14820;48.682;8.890;2022-07-23T15:09:05;27.30;91.70
26224;DHT22;14820;48.682;8.890;2022-07-23T15:11:31;27.30;91.50
26224;DHT22;14820;48.682;8.890;2022-07-23T15:13:59;27.40;91.40
26224;DHT22;14820;48.682;8.890;2022-07-23T15:16:25;27.40;91.10
26224;DHT22;14820;48.682;8.890;2022-07-23T15:18:51;27.50;91.10
26224;DHT22;14820;48.682;8.890;2022-07-23T15:21:16;27.40;91.60
26224;DHT22;14820;48.682;8.890;2022-07-23T15:23:42;27.40;92.30
26224;DHT22;14820;48.682;8.890;2022-07-23T15:26:08;27.40;92.30
26224;DHT22;14820;48.682;8.890;2022-07-23T15:28:34;27.40;92.10
26224;DHT22;14820;48.682;8.890;2022-07-23T15:31:01;27.50;92.40
26224;DHT22;14820;48.682;8.890;2022-07-23T15:33:26;27.50;92.90
26224;DHT22;14820;48.682;8.890;2022-07-23T15:35:52;27.50;91.80
26224;DHT22;14820;48.682;8.890;2022-07-23T15:38:20;27.50;91.30
26224;DHT22;14820;48.682;8.890;2022-07-23T15:40:46;27.50;91.30
26224;DHT22;14820;48.682;8.890;2022-07-23T15:43:12;27.50;91.30
26224;DHT22;14820;48.682;8.890;2022-07-23T15:45:39;27.40;91.70
26224;DHT22;14820;48.682;8.890;2022-07-23T15:48:05;27.50;91.50
26224;DHT22;14820;48.682;8.890;2022-07-23T15:50:30;27.50;91.20
26224;DHT22;14820;48.682;8.890;2022-07-23T15:52:56;27.50;91.50
26224;DHT22;14820;48.682;8.890;2022-07-23T15:55:22;27.50;91.80
26224;DHT22;14820;48.682;8.890;2022-07-23T15:57:49;27.50;91.10
26224;DHT22;14820;48.682;8.890;2022-07-23T16:00:15;27.40;91.00
26224;DHT22;14820;48.682;8.890;2022-07-23T16:02:40;27.40;91.30
26224;DHT22;14820;48.682;8.890;2022-07-23T16:05:06;27.40;91.20
26224;DHT22;14820;48.682;8.890;2022-07-23T16:07:32;27.20;91.40
26224;DHT22;14820;48.682;8.890;2022-07-23T16:10:05;27.10;91.50
26224;DHT22;14820;48.682;8.890;2022-07-23T16:12:31;27.10;92.00
26224;DHT22;14820;48.682;8.890;2022-07-23T16:14:57;27.10;91.90
26224;DHT22;14820;48.682;8.890;2022-07-23T16:17:23;27.00;91.60
26224;DHT22;14820;48.682;8.890;2022-07-23T16:19:48;26.90;91.50
26224;DHT22;14820;48.682;8.890;2022-07-23T16:22:14;26.80;91.80
26224;DHT22;14820;48.682;8.890;2022-07-23T16:24:42;26.80;92.30
26224;DHT22;14820;48.682;8.890;2022-07-23T16:27:08;26.80;92.60
26224;DHT22;14820;48.682;8.890;2022-07-23T16:29:33;26.70;93.00